Time;durP1;ratioP1;P1;durP2;ratioP2;P2;SDS_P1;SDS_P2;PMS_P1;PMS_P2;Temp;Humidity;BMP_temperature;BMP_pressure;BME280_temperature;BME280_humidity;BME280_pressure;Samples;Min_cycle;Max_cycle;Signal;HPM_P1;HPM_P2
2024/03/25 00:01:14;;;;;;;68.13;30.85;;;1.30;99.90;;;;;;5031397;28;20017;-78
2024/03/25 00:03:40;;;;;;;56.92;27.27;;;1.30;99.90;;;;;;5051197;28;20021;-78
2024/03/25 00:06:06;;;;;;;64.65;29.45;;;1.30;99.90;;;;;;5049955;28;20450;-78
2024/03/25 00:08:32;;;;;;;49.17;26.08;;;1.40;99.90;;;;;;5051417;28;20017;-78
2024/03/25 00:10:58;;;;;;;83.68;41.65;;;1.40;99.90;;;;;;5033059;28;20017;-77
2024/03/25 00:13:23;;;;;;;75.57;38.75;;;1.40;99.90;;;;;;5034358;28;20044;-78
2024/03/25 00:15:50;;;;;;;74.30;37.38;;;1.30;99.90;;;;;;5048236;28;20065;-78
2024/03/25 00:18:16;;;;;;;80.95;43.08;;;1.30;99.90;;;;;;5034389;28;20052;-78
2024/03/25 00:20:42;;;;;;;89.55;44.53;;;1.40;99.90;;;;;;5033559;28;20442;-78
2024/03/25 00:23:07;;;;;;;91.10;42.70;;;1.40;99.90;;;;;;5027715;28;20031;-78
2024/03/25 00:25:33;;;;;;;81.20;40.65;;;1.40;99.90;;;;;;5030753;28;20036;-78
2024/03/25 00:27:59;;;;;;;75.38;40.85;;;1.40;99.90;;;;;;5024408;28;20471;-78
2024/03/25 00:30:24;;;;;;;80.05;42.17;;;1.40;99.90;;;;;;5033442;28;20020;-78
2024/03/25 00:32:50;;;;;;;72.40;36.30;;;1.40;99.90;;;;;;5051943;28;20087;-78
2024/03/25 00:35:16;;;;;;;59.10;31.50;;;1.40;99.90;;;;;;5036523;28;20116;-78
2024/03/25 00:37:41;;;;;;;49.70;23.67;;;1.40;99.90;;;;;;5037890;28;20013;-78
2024/03/25 00:40:08;;;;;;;39.63;21.15;;;1.40;99.90;;;;;;5036672;28;20029;-78
2024/03/25 00:42:33;;;;;;;39.30;20.42;;;1.40;99.90;;;;;;5037217;28;20053;-78
2024/03/25 00:44:59;;;;;;;40.45;22.15;;;1.50;99.90;;;;;;5042323;28;20551;-78
2024/03/25 00:47:26;;;;;;;39.78;21.90;;;1.50;99.90;;;;;;5055359;28;20021;-78
2024/03/25 00:49:52;;;;;;;34.78;20.23;;;1.50;99.90;;;;;;5036835;28;20040;-78
2024/03/25 00:52:17;;;;;;;37.45;19.90;;;1.50;99.90;;;;;;5055403;28;20028;-77
2024/03/25 00:54:43;;;;;;;36.08;20.60;;;1.50;99.90;;;;;;5051325;28;20046;-78
2024/03/25 00:57:11;;;;;;;31.70;17.45;;;1.50;99.90;;;;;;5055395;28;20078;-78
2024/03/25 00:59:37;;;;;;;32.75;18.50;;;1.50;99.90;;;;;;5036628;28;20389;-78
2024/03/25 01:02:03;;;;;;;31.48;18.23;;;1.50;99.90;;;;;;5037588;28;20067;-78
2024/03/25 01:04:28;;;;;;;33.13;17.63;;;1.50;99.90;;;;;;5036977;28;20066;-77
2024/03/25 01:06:54;;;;;;;36.63;19.17;;;1.50;99.90;;;;;;5055353;28;20068;-77
2024/03/25 01:09:21;;;;;;;39.92;20.55;;;1.50;99.90;;;;;;5037289;28;20025;-77
2024/03/25 01:11:47;;;;;;;44.78;26.45;;;1.50;99.90;;;;;;5055329;28;20017;-78
2024/03/25 01:14:13;;;;;;;48.28;27.25;;;1.50;99.90;;;;;;5045689;28;20079;-78
2024/03/25 01:16:39;;;;;;;44.45;24.85;;;1.60;99.90;;;;;;5035796;28;20053;-77
2024/03/25 01:19:04;;;;;;;52.35;27.02;;;1.60;99.90;;;;;;5036234;28;20048;-78
2024/03/25 01:21:30;;;;;;;43.90;24.23;;;1.60;99.90;;;;;;5035952;28;20025;-78
2024/03/25 01:23:56;;;;;;;35.80;21.38;;;1.60;99.90;;;;;;5035970;28;20017;-78
2024/03/25 01:26:22;;;;;;;36.97;20.25;;;1.70;99.90;;;;;;5018037;28;20021;-78
2024/03/25 01:28:47;;;;;;;31.25;18.50;;;1.60;99.90;;;;;;5035017;28;20028;-77
2024/03/25 01:31:13;;;;;;;55.95;27.25;;;1.70;99.90;;;;;;5035234;28;20486;-78
2024/03/25 01:33:39;;;;;;;50.40;25.27;;;1.70;99.90;;;;;;5031714;28;20506;-78
2024/03/25 01:36:05;;;;;;;47.97;24.98;;;1.70;99.90;;;;;;5018474;28;20030;-78
2024/03/25 01:38:31;;;;;;;43.00;23.55;;;1.70;99.90;;;;;;5001617;28;20018;-77
2024/03/25 01:41:11;;;;;;;39.15;22.67;;;1.70;99.90;;;;;;5021623;28;20483;-77
2024/03/25 01:43:37;;;;;;;34.83;20.75;;;1.70;99.90;;;;;;5003608;28;20103;-77
2024/03/25 01:46:03;;;;;;;40.42;21.42;;;1.70;99.90;;;;;;4998813;28;20463;-78
2024/03/25 01:48:28;;;;;;;35.95;18.98;;;1.70;99.90;;;;;;5017774;28;20026;-78
2024/03/25 01:50:56;;;;;;;37.50;20.58;;;1.70;99.90;;;;;;5009562;28;20024;-78
2024/03/25 01:53:24;;;;;;;31.77;16.35;;;1.70;99.90;;;;;;5035407;28;20520;-77
2024/03/25 01:55:53;;;;;;;29.17;16.73;;;1.70;99.90;;;;;;5033937;28;20033;-78
2024/03/25 01:58:19;;;;;;;31.17;15.93;;;1.70;99.90;;;;;;5018139;28;20022;-78
2024/03/25 02:00:45;;;;;;;32.67;18.83;;;1.70;99.90;;;;;;5025756;28;20057;-77
2024/03/25 02:03:11;;;;;;;33.90;18.30;;;1.70;99.90;;;;;;5018073;28;20067;-78
2024/03/25 02:05:37;;;;;;;47.22;27.20;;;1.60;99.90;;;;;;5017589;28;20453;-78
2024/03/25 02:08:03;;;;;;;43.13;25.30;;;1.60;99.90;;;;;;5018145;28;20465;-77
2024/03/25 02:10:30;;;;;;;45.25;26.35;;;1.60;99.90;;;;;;5035673;28;20463;-78
2024/03/25 02:12:55;;;;;;;32.72;19.98;;;1.60;99.90;;;;;;5018333;28;20029;-77
2024/03/25 02:15:21;;;;;;;32.35;16.60;;;1.60;99.90;;;;;;5017481;28;20025;-78
2024/03/25 02:17:47;;;;;;;25.95;15.07;;;1.60;99.90;;;;;;5016773;28;20059;-77
2024/03/25 02:20:15;;;;;;;19.48;11.32;;;1.60;99.90;;;;;;5017846;28;20441;-78
2024/03/25 02:22:41;;;;;;;22.13;10.88;;;1.60;99.90;;;;;;5034343;28;20017;-77
2024/03/25 02:25:09;;;;;;;17.80;10.07;;;1.70;99.90;;;;;;5035187;28;20053;-77
2024/03/25 02:27:36;;;;;;;19.02;9.95;;;1.70;99.90;;;;;;5016565;28;20517;-78
2024/03/25 02:30:13;;;;;;;35.45;20.08;;;1.60;99.90;;;;;;5034314;28;20030;-78
2024/03/25 02:32:39;;;;;;;27.20;15.10;;;1.60;99.90;;;;;;5034255;28;20037;-79
2024/03/25 02:35:13;;;;;;;26.35;16.42;;;1.60;99.90;;;;;;5016612;28;20025;-78
2024/03/25 02:37:40;;;;;;;20.10;12.48;;;1.60;99.90;;;;;;5016774;28;20429;-78
2024/03/25 02:40:07;;;;;;;28.45;17.83;;;1.60;99.90;;;;;;5034699;28;20025;-78
2024/03/25 02:42:33;;;;;;;17.15;11.25;;;1.50;99.90;;;;;;5034235;28;20017;-77
2024/03/25 02:44:59;;;;;;;17.30;11.45;;;1.50;99.90;;;;;;5033868;28;20017;-78
2024/03/25 02:47:25;;;;;;;15.85;11.02;;;1.50;99.90;;;;;;5034304;28;20091;-78
2024/03/25 02:49:53;;;;;;;15.82;10.32;;;1.50;99.90;;;;;;5031898;28;20083;-78
2024/03/25 02:52:20;;;;;;;18.83;10.82;;;1.50;99.90;;;;;;5043528;28;20028;-78
2024/03/25 02:54:45;;;;;;;16.02;10.75;;;1.50;99.90;;;;;;5050451;28;20029;-78
2024/03/25 02:57:11;;;;;;;14.50;9.88;;;1.40;99.90;;;;;;5033426;28;20021;-78
2024/03/25 02:59:37;;;;;;;14.82;10.05;;;1.40;99.90;;;;;;5032718;28;20017;-77
2024/03/25 03:02:03;;;;;;;15.30;9.23;;;1.40;99.90;;;;;;5051928;28;20021;-78
2024/03/25 03:04:28;;;;;;;18.17;10.15;;;1.40;99.90;;;;;;5045139;28;20050;-77
2024/03/25 03:06:54;;;;;;;18.50;11.40;;;1.40;99.90;;;;;;5044912;28;20032;-78
2024/03/25 03:09:20;;;;;;;15.35;9.85;;;1.40;99.90;;;;;;5047274;28;20053;-77
2024/03/25 03:11:45;;;;;;;16.75;11.30;;;1.50;99.90;;;;;;5033728;28;20379;-79
2024/03/25 03:14:11;;;;;;;12.55;10.05;;;1.50;99.90;;;;;;5049791;28;20072;-78
2024/03/25 03:16:36;;;;;;;14.98;9.07;;;1.50;99.90;;;;;;5024266;28;20033;-78
2024/03/25 03:19:02;;;;;;;11.23;7.70;;;1.60;99.90;;;;;;5034981;28;20075;-78
2024/03/25 03:21:29;;;;;;;11.60;7.32;;;1.60;99.90;;;;;;5033937;28;20025;-78
2024/03/25 03:23:55;;;;;;;14.32;8.13;;;1.60;99.90;;;;;;5017179;28;20022;-78
2024/03/25 03:26:21;;;;;;;12.52;6.85;;;1.60;99.90;;;;;;5034269;28;20375;-78
2024/03/25 03:28:47;;;;;;;12.55;7.85;;;1.70;99.90;;;;;;5035951;28;20021;-78
2024/03/25 03:31:12;;;;;;;11.63;7.05;;;1.70;99.90;;;;;;5052869;28;20032;-78
2024/03/25 03:33:38;;;;;;;11.70;6.57;;;1.80;99.90;;;;;;5031386;28;20099;-78
2024/03/25 03:36:04;;;;;;;10.60;6.43;;;1.80;99.90;;;;;;5031688;28;20056;-79
2024/03/25 03:38:30;;;;;;;9.95;7.20;;;1.90;99.90;;;;;;5048974;28;20473;-78
2024/03/25 03:41:04;;;;;;;11.52;7.05;;;1.90;99.90;;;;;;5034850;28;20032;-78
2024/03/25 03:43:30;;;;;;;9.90;6.43;;;1.90;99.90;;;;;;5046489;28;20029;-78
2024/03/25 03:45:55;;;;;;;8.68;6.32;;;2.00;99.90;;;;;;5019612;28;20084;-78
2024/03/25 03:48:21;;;;;;;8.20;6.55;;;2.00;99.90;;;;;;5023039;28;20097;-78
2024/03/25 03:50:47;;;;;;;12.10;6.53;;;2.00;99.90;;;;;;5036481;28;20028;-78
2024/03/25 03:53:13;;;;;;;8.38;6.53;;;2.00;99.90;;;;;;5034675;28;20076;-78
2024/03/25 03:55:39;;;;;;;11.18;6.90;;;2.00;99.90;;;;;;5010903;28;20037;-78
2024/03/25 03:58:05;;;;;;;12.23;7.50;;;2.00;99.90;;;;;;5015067;28;20033;-78
2024/03/25 04:00:34;;;;;;;8.27;5.78;;;2.00;99.90;;;;;;5015651;28;20021;-78
2024/03/25 04:03:00;;;;;;;9.23;6.53;;;2.00;99.90;;;;;;5037074;28;20444;-78
2024/03/25 04:05:30;;;;;;;9.55;6.88;;;2.00;99.90;;;;;;5038872;28;20032;-77
2024/03/25 04:07:56;;;;;;;9.63;7.68;;;2.00;99.90;;;;;;5034362;28;20386;-78
2024/03/25 04:10:22;;;;;;;9.48;5.80;;;2.00;99.90;;;;;;5020998;28;20022;-78
2024/03/25 04:12:48;;;;;;;10.73;6.00;;;2.00;99.90;;;;;;5039089;28;20052;-78
2024/03/25 04:15:17;;;;;;;9.95;6.28;;;2.00;99.90;;;;;;5032415;28;20017;-78
2024/03/25 04:17:44;;;;;;;10.20;6.22;;;1.90;99.90;;;;;;5033723;28;20013;-78
2024/03/25 04:20:11;;;;;;;10.23;5.75;;;1.90;99.90;;;;;;5010443;28;20481;-78
2024/03/25 04:22:41;;;;;;;10.93;6.25;;;1.90;99.90;;;;;;5033866;28;20024;-78
2024/03/25 04:25:08;;;;;;;8.00;6.20;;;1.90;99.90;;;;;;5045325;28;20418;-78
2024/03/25 04:27:33;;;;;;;10.23;5.97;;;1.90;99.90;;;;;;5028957;28;20116;-77
2024/03/25 04:29:59;;;;;;;11.57;7.45;;;1.90;99.90;;;;;;5034062;28;20116;-78
2024/03/25 04:32:25;;;;;;;10.82;6.85;;;1.80;99.90;;;;;;5051489;28;20394;-78
2024/03/25 04:34:50;;;;;;;12.68;6.85;;;1.90;99.90;;;;;;5034073;28;20032;-78
2024/03/25 04:37:16;;;;;;;11.45;7.13;;;1.90;99.90;;;;;;5014625;28;20030;-78
2024/03/25 04:39:42;;;;;;;12.02;7.43;;;1.90;99.90;;;;;;5014234;28;20083;-78
2024/03/25 04:42:07;;;;;;;11.15;8.43;;;1.80;99.90;;;;;;5016098;28;20032;-78
2024/03/25 04:44:33;;;;;;;13.07;8.50;;;1.80;99.90;;;;;;5033550;28;20494;-78
2024/03/25 04:46:58;;;;;;;8.30;6.72;;;1.90;99.90;;;;;;5050671;28;20043;-78
2024/03/25 04:49:24;;;;;;;12.93;9.00;;;1.90;99.90;;;;;;5012729;28;20026;-78
2024/03/25 04:51:51;;;;;;;10.90;7.93;;;1.90;99.90;;;;;;4998164;28;20026;-78
2024/03/25 04:54:17;;;;;;;10.27;7.03;;;1.90;99.90;;;;;;5027589;28;20418;-78
2024/03/25 04:56:44;;;;;;;14.27;8.57;;;2.00;99.90;;;;;;5002674;28;20025;-78
2024/03/25 04:59:09;;;;;;;9.85;7.05;;;2.00;99.90;;;;;;5002524;28;20025;-77
2024/03/25 05:01:36;;;;;;;15.93;9.52;;;2.10;99.90;;;;;;5019795;28;20097;-78
2024/03/25 05:04:02;;;;;;;18.08;9.85;;;2.10;99.90;;;;;;5000941;28;20161;-78
2024/03/25 05:06:27;;;;;;;16.67;8.48;;;2.10;99.90;;;;;;5034920;28;20473;-78
2024/03/25 05:08:53;;;;;;;12.15;8.27;;;2.10;99.90;;;;;;5016495;28;20031;-78
2024/03/25 05:11:19;;;;;;;11.00;7.10;;;2.20;99.90;;;;;;5037996;28;21002;-78
2024/03/25 05:13:44;;;;;;;13.13;6.47;;;2.20;99.90;;;;;;5017806;28;20052;-78
2024/03/25 05:16:10;;;;;;;12.45;7.68;;;2.30;99.90;;;;;;5031985;28;20401;-78
2024/03/25 05:18:36;;;;;;;8.85;6.70;;;2.30;99.90;;;;;;5017954;28;20017;-78
2024/03/25 05:21:02;;;;;;;10.77;6.22;;;2.40;99.90;;;;;;5041275;28;20020;-78
2024/03/25 05:23:28;;;;;;;11.10;7.47;;;2.40;99.90;;;;;;5039338;28;20045;-78
2024/03/25 05:25:53;;;;;;;10.52;6.70;;;2.40;99.90;;;;;;5023991;28;20103;-77
2024/03/25 05:28:19;;;;;;;8.13;6.05;;;2.50;99.90;;;;;;5038738;28;20044;-78
2024/03/25 05:30:45;;;;;;;8.55;6.10;;;2.50;99.90;;;;;;5041596;28;20390;-77
2024/03/25 05:33:10;;;;;;;7.03;5.45;;;2.50;99.90;;;;;;5020831;28;20040;-78
2024/03/25 05:35:36;;;;;;;8.60;5.95;;;2.50;99.90;;;;;;5023727;28;20025;-78
2024/03/25 05:38:05;;;;;;;11.65;7.82;;;2.60;99.90;;;;;;5020711;28;20040;-78
2024/03/25 05:40:31;;;;;;;10.43;6.60;;;2.60;99.90;;;;;;5041576;28;20013;-78
2024/03/25 05:42:57;;;;;;;21.60;9.07;;;2.60;99.90;;;;;;5038457;28;20040;-78
2024/03/25 05:45:22;;;;;;;14.30;6.47;;;2.60;99.90;;;;;;5041597;28;20096;-78
2024/03/25 05:47:50;;;;;;;17.38;8.55;;;2.60;99.90;;;;;;5038151;28;20053;-78
2024/03/25 05:50:16;;;;;;;10.57;6.88;;;2.70;99.90;;;;;;5040791;28;20013;-78
2024/03/25 05:52:42;;;;;;;10.23;6.32;;;2.70;99.90;;;;;;5031715;28;20036;-78
2024/03/25 05:55:09;;;;;;;8.38;6.45;;;2.70;99.90;;;;;;5042169;28;20056;-78
2024/03/25 05:57:35;;;;;;;10.35;7.30;;;2.70;99.90;;;;;;5029015;28;20528;-79
2024/03/25 06:00:02;;;;;;;12.02;7.15;;;2.70;99.90;;;;;;5042060;28;20033;-78
2024/03/25 06:02:28;;;;;;;10.48;7.05;;;2.70;99.90;;;;;;5027996;28;20028;-77
2024/03/25 06:04:53;;;;;;;11.48;8.27;;;2.80;99.90;;;;;;5038399;28;20112;-78
2024/03/25 06:07:19;;;;;;;10.43;7.15;;;2.80;99.90;;;;;;5033470;28;20025;-78
2024/03/25 06:09:45;;;;;;;12.63;7.70;;;2.80;99.90;;;;;;5047697;28;20447;-78
2024/03/25 06:12:10;;;;;;;8.93;6.90;;;2.80;99.90;;;;;;5035921;28;20018;-78
2024/03/25 06:14:37;;;;;;;8.85;6.75;;;2.80;99.90;;;;;;5038115;28;20029;-78
2024/03/25 06:17:03;;;;;;;9.55;7.53;;;2.80;99.90;;;;;;5024051;28;20482;-78
2024/03/25 06:19:29;;;;;;;10.45;7.38;;;2.80;99.90;;;;;;5043644;28;20021;-78
2024/03/25 06:21:54;;;;;;;12.07;7.22;;;2.80;99.90;;;;;;5033730;28;20070;-79
2024/03/25 06:24:20;;;;;;;12.00;8.27;;;2.80;99.90;;;;;;5042970;28;20027;-78
2024/03/25 06:26:47;;;;;;;10.88;7.57;;;2.80;99.90;;;;;;5024770;28;20123;-78
2024/03/25 06:29:13;;;;;;;11.77;7.80;;;2.80;99.90;;;;;;5028528;28;20132;-78
2024/03/25 06:34:22;;;;;;;13.85;8.73;;;2.80;99.90;;;;;;5032620;28;20099;-78
2024/03/25 06:36:48;;;;;;;12.57;8.70;;;2.90;99.90;;;;;;5046061;28;20475;-78
2024/03/25 06:39:15;;;;;;;13.18;9.20;;;2.90;99.90;;;;;;5031289;28;20036;-78
2024/03/25 06:41:40;;;;;;;16.63;9.98;;;3.00;99.90;;;;;;5034473;28;20029;-78
2024/03/25 06:44:06;;;;;;;11.30;8.50;;;2.90;99.90;;;;;;5031347;28;20017;-78
2024/03/25 06:46:32;;;;;;;14.70;10.05;;;3.00;99.90;;;;;;5027656;28;20176;-78
2024/03/25 06:48:58;;;;;;;17.48;11.15;;;3.00;99.90;;;;;;5010061;28;20017;-77
2024/03/25 06:51:24;;;;;;;17.13;10.73;;;3.00;99.90;;;;;;5032251;28;20021;-78
2024/03/25 06:53:50;;;;;;;17.23;11.35;;;3.00;99.90;;;;;;5002479;28;20056;-79
2024/03/25 06:56:16;;;;;;;18.73;11.00;;;3.10;99.90;;;;;;5026345;28;20486;-79
2024/03/25 06:58:43;;;;;;;19.00;11.02;;;3.10;99.90;;;;;;5038848;28;20032;-79
2024/03/25 07:01:09;;;;;;;22.80;13.15;;;3.10;99.90;;;;;;5041158;28;20029;-79
2024/03/25 07:03:35;;;;;;;25.27;13.57;;;3.10;99.90;;;;;;5036165;28;20451;-79
2024/03/25 07:06:02;;;;;;;40.08;18.73;;;3.10;99.90;;;;;;5046560;28;20104;-79
2024/03/25 07:08:28;;;;;;;80.47;31.70;;;3.10;99.90;;;;;;5038787;28;20051;-79
2024/03/25 07:10:54;;;;;;;53.60;20.30;;;3.10;99.90;;;;;;5030313;28;20075;-79
2024/03/25 07:13:20;;;;;;;26.67;16.45;;;3.20;99.90;;;;;;5039616;28;20041;-79
2024/03/25 07:15:46;;;;;;;25.45;15.60;;;3.30;99.90;;;;;;5027023;28;20056;-78
2024/03/25 07:18:12;;;;;;;21.05;12.90;;;3.30;99.90;;;;;;5044131;28;20010;-79
2024/03/25 07:20:39;;;;;;;24.58;11.95;;;3.30;99.90;;;;;;5029696;28;20029;-79
2024/03/25 07:23:04;;;;;;;19.40;12.48;;;3.40;99.90;;;;;;5044176;28;20028;-79
2024/03/25 07:25:30;;;;;;;22.35;12.82;;;3.40;99.90;;;;;;5029487;28;20100;-79
2024/03/25 07:27:56;;;;;;;26.73;13.85;;;3.40;99.90;;;;;;5026150;28;20022;-79
2024/03/25 07:30:25;;;;;;;22.60;13.05;;;3.50;99.90;;;;;;5042580;28;20072;-79
2024/03/25 07:32:51;;;;;;;23.67;12.68;;;3.50;99.90;;;;;;5040476;28;20402;-79
2024/03/25 07:35:17;;;;;;;24.30;14.43;;;3.50;99.90;;;;;;5029633;28;20025;-79
2024/03/25 07:37:46;;;;;;;19.08;12.48;;;3.50;99.90;;;;;;5025684;28;20017;-79
2024/03/25 07:40:11;;;;;;;19.05;12.07;;;3.60;99.90;;;;;;5030005;28;20054;-79
2024/03/25 07:42:38;;;;;;;19.88;13.90;;;3.60;99.90;;;;;;5042579;28;20382;-79
2024/03/25 07:45:07;;;;;;;27.70;15.77;;;3.60;99.90;;;;;;5024759;28;20033;-79
2024/03/25 07:47:33;;;;;;;26.98;14.82;;;3.60;99.90;;;;;;5009506;28;20549;-79
2024/03/25 07:49:59;;;;;;;25.20;13.73;;;3.70;99.90;;;;;;5005080;28;20026;-79
2024/03/25 07:52:26;;;;;;;22.80;12.98;;;3.70;99.90;;;;;;5036221;28;20033;-79
2024/03/25 07:54:51;;;;;;;27.35;14.88;;;3.80;99.90;;;;;;5040206;28;20025;-79
2024/03/25 07:57:19;;;;;;;32.10;17.13;;;3.80;99.90;;;;;;5038969;28;20023;-79
2024/03/25 07:59:45;;;;;;;36.38;16.58;;;3.90;99.90;;;;;;5022181;28;20084;-79
2024/03/25 08:02:10;;;;;;;37.85;19.15;;;3.80;99.90;;;;;;5015958;28;20025;-79
2024/03/25 08:04:36;;;;;;;25.55;14.85;;;3.90;99.90;;;;;;5034428;28;20021;-79
2024/03/25 08:07:02;;;;;;;40.95;19.67;;;4.00;99.90;;;;;;5033832;28;20024;-79
2024/03/25 08:09:28;;;;;;;35.60;19.30;;;4.00;99.90;;;;;;5052153;28;20100;-79
2024/03/25 08:11:54;;;;;;;43.38;18.65;;;4.20;99.90;;;;;;5040750;28;20028;-79
2024/03/25 08:14:20;;;;;;;24.80;14.18;;;4.20;99.90;;;;;;5019940;28;20226;-79
2024/03/25 08:16:45;;;;;;;26.10;14.82;;;4.20;99.90;;;;;;5033408;28;20044;-79
2024/03/25 08:19:11;;;;;;;22.25;13.00;;;4.20;99.90;;;;;;5051801;28;20021;-79
2024/03/25 08:21:37;;;;;;;22.35;13.77;;;4.20;99.90;;;;;;5050418;28;20466;-79
2024/03/25 08:24:03;;;;;;;22.02;14.00;;;4.20;99.90;;;;;;5032848;28;20502;-79
2024/03/25 08:26:29;;;;;;;24.73;14.93;;;4.30;99.90;;;;;;5051568;28;20017;-79
2024/03/25 08:28:55;;;;;;;20.38;13.18;;;4.30;99.90;;;;;;5034075;28;20028;-79
2024/03/25 08:31:20;;;;;;;20.35;14.48;;;4.40;99.90;;;;;;5050881;28;20462;-80
2024/03/25 08:33:46;;;;;;;21.60;13.68;;;4.40;99.90;;;;;;5051898;28;20117;-79
2024/03/25 08:36:12;;;;;;;18.35;12.02;;;4.40;99.90;;;;;;5051472;28;20025;-79
2024/03/25 08:38:38;;;;;;;24.52;14.15;;;4.40;99.90;;;;;;5052064;28;20100;-79
2024/03/25 08:41:04;;;;;;;35.72;17.63;;;4.50;99.90;;;;;;5033280;28;20031;-79
2024/03/25 08:43:29;;;;;;;22.25;14.45;;;4.60;99.90;;;;;;5052195;28;20058;-79
2024/03/25 08:45:55;;;;;;;20.42;12.73;;;4.80;99.90;;;;;;5045859;28;20029;-79
2024/03/25 08:48:21;;;;;;;25.27;14.55;;;5.00;99.90;;;;;;5020467;28;20398;-79
2024/03/25 08:50:47;;;;;;;21.77;14.40;;;5.00;99.90;;;;;;5030635;28;20095;-79
2024/03/25 08:53:12;;;;;;;32.42;17.42;;;5.10;99.90;;;;;;5025513;28;20379;-79
2024/03/25 08:55:38;;;;;;;28.27;16.95;;;5.20;99.90;;;;;;5028615;28;20056;-79
2024/03/25 08:58:04;;;;;;;22.05;14.13;;;5.40;99.90;;;;;;5034764;28;20071;-79
2024/03/25 09:00:30;;;;;;;27.80;14.55;;;5.40;99.90;;;;;;5036138;28;20378;-79
2024/03/25 09:02:56;;;;;;;22.48;15.00;;;5.50;99.90;;;;;;5047525;28;20033;-79
2024/03/25 09:05:22;;;;;;;22.48;15.15;;;5.60;99.90;;;;;;5027993;28;20036;-79
2024/03/25 09:07:52;;;;;;;20.25;12.18;;;5.70;99.90;;;;;;5052840;28;20067;-79
2024/03/25 09:13:05;;;;;;;16.55;11.40;;;5.70;99.90;;;;;;5054081;28;20056;-79
2024/03/25 09:15:31;;;;;;;16.25;9.18;;;5.40;99.90;;;;;;5039795;28;20390;-79
2024/03/25 09:17:57;;;;;;;12.10;8.07;;;5.00;99.90;;;;;;5036155;28;20037;-79
2024/03/25 09:20:23;;;;;;;17.80;10.82;;;4.90;99.90;;;;;;5035422;28;20025;-79
2024/03/25 09:22:49;;;;;;;17.67;12.25;;;4.90;99.90;;;;;;5045903;28;20022;-79
2024/03/25 09:25:15;;;;;;;23.25;15.52;;;5.20;99.90;;;;;;5014409;28;20387;-79
2024/03/25 09:27:41;;;;;;;24.77;15.80;;;5.60;99.90;;;;;;5045243;28;20056;-79
2024/03/25 09:30:10;;;;;;;22.95;14.38;;;5.80;99.90;;;;;;5035802;28;20462;-79
2024/03/25 09:32:35;;;;;;;22.30;13.60;;;6.00;99.90;;;;;;5053022;28;20438;-79
2024/03/25 09:35:01;;;;;;;17.15;10.80;;;6.00;99.90;;;;;;5036323;28;20025;-79
2024/03/25 09:37:27;;;;;;;24.70;13.95;;;5.90;99.90;;;;;;5035514;28;20025;-79
2024/03/25 09:39:53;;;;;;;14.15;10.05;;;5.90;99.90;;;;;;5054202;28;20025;-80
2024/03/25 09:42:26;;;;;;;12.60;9.90;;;5.90;99.90;;;;;;5052161;28;20022;-79
2024/03/25 09:44:54;;;;;;;11.77;9.45;;;6.00;99.90;;;;;;5049123;28;20056;-79
2024/03/25 09:47:21;;;;;;;13.30;9.70;;;5.90;99.90;;;;;;5051550;28;20036;-79
2024/03/25 09:49:48;;;;;;;12.75;9.23;;;6.00;99.90;;;;;;5046640;28;20104;-79
2024/03/25 09:52:15;;;;;;;11.68;8.73;;;6.10;99.90;;;;;;5025070;28;20026;-79
2024/03/25 09:54:41;;;;;;;11.23;8.38;;;6.20;99.90;;;;;;5018169;28;20033;-79
2024/03/25 09:57:08;;;;;;;11.70;9.35;;;6.30;99.90;;;;;;5049183;28;20021;-80
2024/03/25 09:59:34;;;;;;;10.63;8.95;;;6.50;99.90;;;;;;5033044;28;20455;-79
2024/03/25 10:02:00;;;;;;;13.80;10.15;;;6.40;99.90;;;;;;5018051;28;20024;-79
2024/03/25 10:04:26;;;;;;;13.43;9.93;;;6.60;99.90;;;;;;5036649;28;20021;-80
2024/03/25 10:06:52;;;;;;;16.92;9.73;;;6.80;99.90;;;;;;5037779;28;20104;-79
2024/03/25 10:09:21;;;;;;;15.60;10.70;;;6.70;99.90;;;;;;5045791;28;20025;-79
2024/03/25 10:11:50;;;;;;;16.90;10.85;;;6.70;99.90;;;;;;5047519;28;20033;-79
2024/03/25 10:14:19;;;;;;;18.70;13.18;;;6.70;99.90;;;;;;5007359;28;20038;-79
2024/03/25 10:16:44;;;;;;;20.05;12.35;;;6.90;99.90;;;;;;5016188;28;20037;-79
2024/03/25 10:19:10;;;;;;;20.15;13.70;;;6.80;99.90;;;;;;5046753;28;20105;-79
2024/03/25 10:21:36;;;;;;;18.73;13.05;;;6.80;99.90;;;;;;5034847;28;20028;-79
2024/03/25 10:24:05;;;;;;;21.58;13.60;;;6.80;99.90;;;;;;5053845;28;20071;-80
2024/03/25 10:26:32;;;;;;;15.77;11.55;;;6.80;99.90;;;;;;5038273;28;20075;-79
2024/03/25 10:29:08;;;;;;;16.27;10.30;;;6.70;99.90;;;;;;5035368;28;20036;-79
2024/03/25 10:31:34;;;;;;;11.77;8.27;;;6.70;99.90;;;;;;5030834;28;20084;-79
2024/03/25 10:34:00;;;;;;;5.35;4.63;;;6.80;99.90;;;;;;5047372;28;20440;-79
2024/03/25 10:36:27;;;;;;;9.20;6.28;;;6.80;99.90;;;;;;5040612;28;20483;-79
2024/03/25 10:38:57;;;;;;;9.38;5.00;;;7.10;99.90;;;;;;5028527;28;20021;-79
2024/03/25 10:41:25;;;;;;;7.63;5.38;;;7.20;99.90;;;;;;5035894;28;20112;-80
2024/03/25 10:43:53;;;;;;;7.07;5.55;;;7.40;99.90;;;;;;5052301;28;20025;-79
2024/03/25 10:46:23;;;;;;;13.57;7.60;;;7.20;99.90;;;;;;5053024;28;20063;-79
2024/03/25 10:49:08;;;;;;;22.23;12.25;;;6.70;99.90;;;;;;5051565;28;20033;-79
2024/03/25 10:51:36;;;;;;;17.88;8.70;;;5.90;99.90;;;;;;5027270;28;20017;-79
2024/03/25 10:54:03;;;;;;;28.77;14.38;;;5.40;99.90;;;;;;5026294;28;20037;-79
2024/03/25 10:56:29;;;;;;;10.30;6.22;;;5.10;99.90;;;;;;5023400;28;20478;-79
2024/03/25 10:58:56;;;;;;;34.35;18.23;;;5.00;99.90;;;;;;5033674;28;20108;-79
2024/03/25 11:01:22;;;;;;;33.38;17.65;;;4.80;99.90;;;;;;5015640;28;20017;-79
2024/03/25 11:03:49;;;;;;;44.03;22.23;;;4.80;99.90;;;;;;5016265;28;20022;-79
2024/03/25 11:06:16;;;;;;;13.07;7.50;;;4.90;99.90;;;;;;5009764;28;20029;-79
2024/03/25 11:08:46;;;;;;;11.88;7.63;;;5.20;99.90;;;;;;5033155;28;20032;-79
2024/03/25 11:11:13;;;;;;;16.67;10.40;;;5.40;99.90;;;;;;5033419;28;20108;-79
2024/03/25 11:13:39;;;;;;;49.42;29.17;;;5.80;99.90;;;;;;5015975;28;20385;-79
2024/03/25 11:16:06;;;;;;;19.85;11.65;;;6.10;99.90;;;;;;5002404;28;20125;-79
2024/03/25 11:18:33;;;;;;;12.13;8.55;;;6.40;99.90;;;;;;5011741;28;20060;-79
2024/03/25 11:21:07;;;;;;;30.50;18.80;;;6.70;99.90;;;;;;5012095;28;20509;-78
2024/03/25 11:23:42;;;;;;;30.75;18.08;;;6.90;99.90;;;;;;5012417;28;20434;-79
2024/03/25 11:26:19;;;;;;;10.75;7.68;;;6.80;99.90;;;;;;5013876;28;20028;-78
2024/03/25 11:28:45;;;;;;;11.60;8.15;;;6.90;99.90;;;;;;5014249;28;20026;-80
2024/03/25 11:31:11;;;;;;;65.00;40.70;;;6.70;99.90;;;;;;5012310;28;20061;-79
2024/03/25 11:33:39;;;;;;;32.60;21.15;;;6.70;99.90;;;;;;5014356;28;20038;-79
2024/03/25 11:36:05;;;;;;;20.90;13.07;;;6.60;99.90;;;;;;5017515;28;20053;-79
2024/03/25 11:38:31;;;;;;;4.40;3.90;;;6.50;99.90;;;;;;5016790;28;20032;-79
2024/03/25 11:40:57;;;;;;;18.40;11.70;;;6.40;99.90;;;;;;5017372;28;20108;-78
2024/03/25 11:43:23;;;;;;;71.72;44.55;;;6.30;99.90;;;;;;5027002;28;20030;-78
2024/03/25 11:45:49;;;;;;;27.13;17.85;;;6.30;99.90;;;;;;5022925;28;20145;-78
2024/03/25 11:48:16;;;;;;;22.13;14.38;;;6.10;99.90;;;;;;5010717;28;20049;-78
2024/03/25 11:50:44;;;;;;;43.90;28.92;;;6.10;99.90;;;;;;5026672;28;20021;-78
2024/03/25 11:53:10;;;;;;;16.55;11.48;;;6.10;99.90;;;;;;5008611;28;20038;-77
2024/03/25 11:55:37;;;;;;;30.30;20.65;;;6.10;99.90;;;;;;5012701;28;20427;-78
2024/03/25 11:58:02;;;;;;;16.77;12.30;;;5.80;99.90;;;;;;5014545;28;20018;-78
2024/03/25 12:00:28;;;;;;;26.80;18.88;;;5.60;99.90;;;;;;5015905;28;20068;-78
2024/03/25 12:02:54;;;;;;;28.88;19.48;;;5.30;99.90;;;;;;5012811;28;20501;-78
2024/03/25 12:05:20;;;;;;;79.93;49.60;;;4.90;99.90;;;;;;5011400;28;20022;-77
2024/03/25 12:07:46;;;;;;;47.22;26.45;;;4.70;99.90;;;;;;5015766;28;20045;-77
2024/03/25 12:12:56;;;;;;;61.17;34.10;;;4.70;99.90;;;;;;5022044;28;20080;-77
2024/03/25 12:15:22;;;;;;;54.10;34.20;;;4.80;99.90;;;;;;5027251;28;20483;-78
2024/03/25 12:17:48;;;;;;;27.88;18.42;;;4.90;99.90;;;;;;5033732;28;20028;-79
2024/03/25 12:20:14;;;;;;;88.90;55.05;;;5.00;99.90;;;;;;5048221;28;20139;-78
2024/03/25 12:22:41;;;;;;;94.05;57.72;;;5.00;99.90;;;;;;5044204;28;20459;-78
2024/03/25 12:25:08;;;;;;;24.65;14.85;;;5.00;99.90;;;;;;5031510;28;20038;-77
2024/03/25 12:27:37;;;;;;;106.90;58.22;;;5.10;99.90;;;;;;5010727;28;20026;-77
2024/03/25 12:30:08;;;;;;;93.65;44.28;;;5.20;99.90;;;;;;5019668;28;20040;-77
2024/03/25 12:32:44;;;;;;;125.00;54.00;;;5.30;99.90;;;;;;5022511;28;20056;-78
2024/03/25 12:35:16;;;;;;;123.75;54.88;;;5.30;99.90;;;;;;5020698;28;20434;-76
2024/03/25 12:37:44;;;;;;;126.28;50.78;;;5.20;99.90;;;;;;5021077;28;20030;-78
2024/03/25 12:40:11;;;;;;;54.85;29.13;;;5.30;99.90;;;;;;5020670;28;20175;-78
2024/03/25 12:42:38;;;;;;;30.45;16.15;;;5.30;99.90;;;;;;5023445;28;20108;-78
2024/03/25 12:45:06;;;;;;;86.88;36.97;;;5.30;99.90;;;;;;5019166;28;20022;-77